sensor_id;sensor_type;location;lat;lon;timestamp;pressure;altitude;pressure_sealevel;temperature;humidity
55289;BME280;41154;45.394;5.734;2023-04-23T00:00:15;96689.63;;;11.20;100.00
55289;BME280;41154;45.394;5.734;2023-04-23T00:02:44;96676.00;;;11.37;100.00
55289;BME280;41154;45.394;5.734;2023-04-23T00:05:11;96673.09;;;10.90;100.00
55289;BME280;41154;45.394;5.734;2023-04-23T00:07:37;96675.75;;;10.80;100.00
55289;BME280;41154;45.394;5.734;2023-04-23T00:10:04;96669.44;;;11.02;100.00
55289;BME280;41154;45.394;5.734;2023-04-23T00:12:31;96674.13;;;10.79;100.00
55289;BME280;41154;45.394;5.734;2023-04-23T00:14:57;96685.09;;;10.77;100.00
55289;BME280;41154;45.394;5.734;2023-04-23T00:17:23;96693.00;;;10.94;100.00
55289;BME280;41154;45.394;5.734;2023-04-23T00:19:49;96685.13;;;10.83;100.00
55289;BME280;41154;45.394;5.734;2023-04-23T00:22:16;96672.38;;;11.00;100.00
55289;BME280;41154;45.394;5.734;2023-04-23T00:24:42;96670.75;;;10.99;100.00
55289;BME280;41154;45.394;5.734;2023-04-23T00:27:08;96650.41;;;11.13;100.00
55289;BME280;41154;45.394;5.734;2023-04-23T00:29:34;96663.19;;;10.91;100.00
55289;BME280;41154;45.394;5.734;2023-04-23T00:32:00;96666.88;;;10.79;100.00
55289;BME280;41154;45.394;5.734;2023-04-23T00:34:26;96665.28;;;10.78;100.00
55289;BME280;41154;45.394;5.734;2023-04-23T00:36:53;96652.63;;;10.74;100.00
55289;BME280;41154;45.394;5.734;2023-04-23T00:39:19;96627.31;;;11.12;100.00
55289;BME280;41154;45.394;5.734;2023-04-23T00:41:45;96632.66;;;11.02;100.00
55289;BME280;41154;45.394;5.734;2023-04-23T00:44:11;96636.03;;;10.82;100.00
55289;BME280;41154;45.394;5.734;2023-04-23T00:46:37;96626.38;;;10.81;100.00
55289;BME280;41154;45.394;5.734;2023-04-23T00:49:03;96617.19;;;10.72;100.00
55289;BME280;41154;45.394;5.734;2023-04-23T00:51:29;96619.06;;;10.71;100.00
55289;BME280;41154;45.394;5.734;2023-04-23T00:53:56;96620.97;;;10.71;100.00
55289;BME280;41154;45.394;5.734;2023-04-23T00:56:23;96612.41;;;10.74;100.00
55289;BME280;41154;45.394;5.734;2023-04-23T00:58:51;96602.81;;;10.88;100.00
55289;BME280;41154;45.394;5.734;2023-04-23T01:01:17;96603.78;;;10.72;100.00
55289;BME280;41154;45.394;5.734;2023-04-23T01:03:50;96600.03;;;10.68;100.00
55289;BME280;41154;45.394;5.734;2023-04-23T01:06:17;96605.47;;;10.88;100.00
55289;BME280;41154;45.394;5.734;2023-04-23T01:08:44;96606.25;;;10.84;100.00
55289;BME280;41154;45.394;5.734;2023-04-23T01:11:12;96604.44;;;11.00;100.00
55289;BME280;41154;45.394;5.734;2023-04-23T01:13:40;96610.22;;;10.71;100.00
55289;BME280;41154;45.394;5.734;2023-04-23T01:16:06;96599.69;;;10.59;100.00
55289;BME280;41154;45.394;5.734;2023-04-23T01:18:33;96595.13;;;10.59;100.00
55289;BME280;41154;45.394;5.734;2023-04-23T01:20:59;96579.97;;;10.86;100.00
55289;BME280;41154;45.394;5.734;2023-04-23T01:23:25;96569.59;;;11.05;100.00
55289;BME280;41154;45.394;5.734;2023-04-23T01:25:52;96574.13;;;11.04;100.00
55289;BME280;41154;45.394;5.734;2023-04-23T01:28:20;96572.50;;;10.88;100.00
55289;BME280;41154;45.394;5.734;2023-04-23T01:30:46;96577.75;;;10.67;100.00
55289;BME280;41154;45.394;5.734;2023-04-23T01:33:13;96574.47;;;10.55;100.00
55289;BME280;41154;45.394;5.734;2023-04-23T01:35:41;96562.38;;;10.47;100.00
55289;BME280;41154;45.394;5.734;2023-04-23T01:38:09;96558.56;;;10.38;100.00
55289;BME280;41154;45.394;5.734;2023-04-23T01:40:36;96556.88;;;10.32;100.00
55289;BME280;41154;45.394;5.734;2023-04-23T01:43:03;96571.16;;;10.37;100.00
55289;BME280;41154;45.394;5.734;2023-04-23T01:45:29;96560.78;;;10.56;100.00
55289;BME280;41154;45.394;5.734;2023-04-23T01:47:57;96566.28;;;10.77;100.00
55289;BME280;41154;45.394;5.734;2023-04-23T01:50:23;96561.03;;;10.50;100.00
55289;BME280;41154;45.394;5.734;2023-04-23T01:52:50;96564.22;;;10.47;100.00
55289;BME280;41154;45.394;5.734;2023-04-23T01:55:17;96568.84;;;10.56;100.00
55289;BME280;41154;45.394;5.734;2023-04-23T01:57:45;96575.72;;;10.42;100.00
55289;BME280;41154;45.394;5.734;2023-04-23T02:00:12;96574.41;;;10.45;100.00
55289;BME280;41154;45.394;5.734;2023-04-23T02:02:40;96574.97;;;10.47;100.00
55289;BME280;41154;45.394;5.734;2023-04-23T02:05:17;96564.78;;;10.49;100.00
55289;BME280;41154;45.394;5.734;2023-04-23T02:07:45;96558.25;;;10.34;100.00
55289;BME280;41154;45.394;5.734;2023-04-23T02:10:11;96550.16;;;10.29;100.00
55289;BME280;41154;45.394;5.734;2023-04-23T02:12:38;96543.78;;;10.35;100.00
55289;BME280;41154;45.394;5.734;2023-04-23T02:15:05;96542.91;;;10.24;100.00
55289;BME280;41154;45.394;5.734;2023-04-23T02:17:32;96546.44;;;10.30;100.00
55289;BME280;41154;45.394;5.734;2023-04-23T02:19:58;96541.59;;;10.32;100.00
55289;BME280;41154;45.394;5.734;2023-04-23T02:22:24;96541.06;;;10.30;100.00
55289;BME280;41154;45.394;5.734;2023-04-23T02:24:51;96542.81;;;10.52;100.00
55289;BME280;41154;45.394;5.734;2023-04-23T02:27:17;96541.56;;;10.70;100.00
55289;BME280;41154;45.394;5.734;2023-04-23T02:29:44;96542.38;;;10.75;100.00
55289;BME280;41154;45.394;5.734;2023-04-23T02:32:10;96540.41;;;10.50;100.00
55289;BME280;41154;45.394;5.734;2023-04-23T02:34:36;96535.75;;;10.35;100.00
55289;BME280;41154;45.394;5.734;2023-04-23T02:37:02;96534.06;;;10.29;100.00
55289;BME280;41154;45.394;5.734;2023-04-23T02:39:30;96532.56;;;10.43;100.00
55289;BME280;41154;45.394;5.734;2023-04-23T02:41:56;96536.09;;;10.44;100.00
55289;BME280;41154;45.394;5.734;2023-04-23T02:44:23;96535.78;;;10.40;100.00
55289;BME280;41154;45.394;5.734;2023-04-23T02:46:50;96519.94;;;10.39;100.00
55289;BME280;41154;45.394;5.734;2023-04-23T02:49:16;96517.00;;;10.40;100.00
55289;BME280;41154;45.394;5.734;2023-04-23T02:51:45;96511.63;;;10.40;100.00
55289;BME280;41154;45.394;5.734;2023-04-23T02:54:12;96507.38;;;10.39;100.00
55289;BME280;41154;45.394;5.734;2023-04-23T02:56:38;96510.50;;;10.31;100.00
55289;BME280;41154;45.394;5.734;2023-04-23T02:59:04;96509.16;;;10.29;100.00
55289;BME280;41154;45.394;5.734;2023-04-23T03:01:31;96502.16;;;10.28;100.00
55289;BME280;41154;45.394;5.734;2023-04-23T03:03:58;96504.06;;;10.32;100.00
55289;BME280;41154;45.394;5.734;2023-04-23T03:06:26;96517.13;;;10.18;100.00
55289;BME280;41154;45.394;5.734;2023-04-23T03:08:51;96513.84;;;10.11;100.00
55289;BME280;41154;45.394;5.734;2023-04-23T03:11:17;96525.16;;;10.18;100.00
55289;BME280;41154;45.394;5.734;2023-04-23T03:13:43;96511.19;;;10.11;100.00
55289;BME280;41154;45.394;5.734;2023-04-23T03:16:09;96510.38;;;10.11;100.00
55289;BME280;41154;45.394;5.734;2023-04-23T03:18:35;96518.16;;;10.12;100.00
55289;BME280;41154;45.394;5.734;2023-04-23T03:21:01;96502.06;;;10.07;100.00
55289;BME280;41154;45.394;5.734;2023-04-23T03:23:28;96502.88;;;10.13;100.00
55289;BME280;41154;45.394;5.734;2023-04-23T03:25:54;96505.28;;;10.09;100.00
55289;BME280;41154;45.394;5.734;2023-04-23T03:28:20;96502.00;;;10.02;100.00
55289;BME280;41154;45.394;5.734;2023-04-23T03:30:46;96507.31;;;9.92;100.00
55289;BME280;41154;45.394;5.734;2023-04-23T03:33:12;96511.91;;;9.96;100.00
55289;BME280;41154;45.394;5.734;2023-04-23T03:35:37;96513.34;;;10.14;100.00
55289;BME280;41154;45.394;5.734;2023-04-23T03:38:08;96521.09;;;10.11;100.00
55289;BME280;41154;45.394;5.734;2023-04-23T03:40:35;96525.31;;;10.01;100.00
55289;BME280;41154;45.394;5.734;2023-04-23T03:43:03;96530.38;;;9.93;100.00
55289;BME280;41154;45.394;5.734;2023-04-23T03:45:48;96527.00;;;10.13;100.00
55289;BME280;41154;45.394;5.734;2023-04-23T03:48:15;96535.69;;;10.30;100.00
55289;BME280;41154;45.394;5.734;2023-04-23T03:50:41;96524.84;;;10.10;100.00
55289;BME280;41154;45.394;5.734;2023-04-23T03:53:19;96523.75;;;10.05;100.00
55289;BME280;41154;45.394;5.734;2023-04-23T03:56:04;96520.47;;;9.98;100.00
55289;BME280;41154;45.394;5.734;2023-04-23T03:58:36;96512.72;;;10.02;100.00
55289;BME280;41154;45.394;5.734;2023-04-23T04:01:01;96510.63;;;10.04;100.00
55289;BME280;41154;45.394;5.734;2023-04-23T04:03:27;96506.06;;;10.04;100.00
55289;BME280;41154;45.394;5.734;2023-04-23T04:05:54;96506.28;;;9.98;100.00
55289;BME280;41154;45.394;5.734;2023-04-23T04:08:20;96502.25;;;9.95;100.00
55289;BME280;41154;45.394;5.734;2023-04-23T04:10:46;96504.81;;;9.80;100.00
55289;BME280;41154;45.394;5.734;2023-04-23T04:13:12;96504.28;;;9.78;100.00
55289;BME280;41154;45.394;5.734;2023-04-23T04:15:40;96499.72;;;9.78;100.00
55289;BME280;41154;45.394;5.734;2023-04-23T04:18:06;96507.47;;;9.75;100.00
55289;BME280;41154;45.394;5.734;2023-04-23T04:20:31;96512.84;;;9.80;100.00
55289;BME280;41154;45.394;5.734;2023-04-23T04:22:57;96519.41;;;9.94;100.00
55289;BME280;41154;45.394;5.734;2023-04-23T04:25:23;96502.72;;;9.82;100.00
55289;BME280;41154;45.394;5.734;2023-04-23T04:27:49;96510.31;;;9.63;100.00
55289;BME280;41154;45.394;5.734;2023-04-23T04:30:14;96507.81;;;9.51;100.00
55289;BME280;41154;45.394;5.734;2023-04-23T04:32:40;96496.59;;;9.54;100.00
55289;BME280;41154;45.394;5.734;2023-04-23T04:35:07;96494.75;;;9.60;100.00
55289;BME280;41154;45.394;5.734;2023-04-23T04:37:34;96500.09;;;9.60;100.00
55289;BME280;41154;45.394;5.734;2023-04-23T04:39:59;96497.75;;;9.63;100.00
55289;BME280;41154;45.394;5.734;2023-04-23T04:42:29;96493.19;;;9.64;100.00
55289;BME280;41154;45.394;5.734;2023-04-23T04:44:55;96498.16;;;9.82;100.00
55289;BME280;41154;45.394;5.734;2023-04-23T04:47:24;96494.59;;;9.71;100.00
55289;BME280;41154;45.394;5.734;2023-04-23T04:49:50;96497.25;;;9.71;100.00
55289;BME280;41154;45.394;5.734;2023-04-23T04:52:16;96497.47;;;10.02;100.00
55289;BME280;41154;45.394;5.734;2023-04-23T04:54:42;96492.13;;;10.07;100.00
55289;BME280;41154;45.394;5.734;2023-04-23T04:57:07;96488.22;;;9.83;100.00
55289;BME280;41154;45.394;5.734;2023-04-23T04:59:33;96489.78;;;9.74;100.00
55289;BME280;41154;45.394;5.734;2023-04-23T05:01:59;96487.72;;;9.86;100.00
55289;BME280;41154;45.394;5.734;2023-04-23T05:04:25;96482.34;;;9.86;100.00
55289;BME280;41154;45.394;5.734;2023-04-23T05:06:51;96483.97;;;9.87;100.00
55289;BME280;41154;45.394;5.734;2023-04-23T05:09:16;96479.72;;;9.91;100.00
55289;BME280;41154;45.394;5.734;2023-04-23T05:11:42;96476.84;;;10.03;100.00
55289;BME280;41154;45.394;5.734;2023-04-23T05:14:08;96477.72;;;10.19;100.00
55289;BME280;41154;45.394;5.734;2023-04-23T05:16:34;96491.88;;;10.09;100.00
55289;BME280;41154;45.394;5.734;2023-04-23T05:18:59;96496.88;;;9.95;100.00
55289;BME280;41154;45.394;5.734;2023-04-23T05:21:25;96497.97;;;9.94;100.00
55289;BME280;41154;45.394;5.734;2023-04-23T05:23:53;96503.06;;;9.96;100.00
55289;BME280;41154;45.394;5.734;2023-04-23T05:26:19;96499.00;;;9.88;100.00
55289;BME280;41154;45.394;5.734;2023-04-23T05:28:45;96506.25;;;9.93;100.00
55289;BME280;41154;45.394;5.734;2023-04-23T05:31:11;96501.50;;;10.05;100.00
55289;BME280;41154;45.394;5.734;2023-04-23T05:33:37;96498.78;;;10.00;100.00
55289;BME280;41154;45.394;5.734;2023-04-23T05:36:03;96492.34;;;9.96;100.00
55289;BME280;41154;45.394;5.734;2023-04-23T05:38:29;96508.47;;;10.06;100.00
55289;BME280;41154;45.394;5.734;2023-04-23T05:40:54;96495.63;;;10.61;100.00
55289;BME280;41154;45.394;5.734;2023-04-23T05:43:20;96499.09;;;10.51;100.00
55289;BME280;41154;45.394;5.734;2023-04-23T05:45:46;96500.00;;;10.83;100.00
55289;BME280;41154;45.394;5.734;2023-04-23T05:48:12;96495.69;;;10.66;100.00
55289;BME280;41154;45.394;5.734;2023-04-23T05:50:38;96490.00;;;10.52;100.00
55289;BME280;41154;45.394;5.734;2023-04-23T05:53:04;96485.69;;;10.51;100.00
55289;BME280;41154;45.394;5.734;2023-04-23T05:55:29;96480.19;;;10.94;100.00
55289;BME280;41154;45.394;5.734;2023-04-23T05:57:55;96492.25;;;10.91;100.00
55289;BME280;41154;45.394;5.734;2023-04-23T06:00:21;96484.91;;;10.61;100.00
55289;BME280;41154;45.394;5.734;2023-04-23T06:02:48;96483.91;;;10.72;100.00
55289;BME280;41154;45.394;5.734;2023-04-23T06:05:13;96487.13;;;10.79;100.00
55289;BME280;41154;45.394;5.734;2023-04-23T06:07:39;96484.38;;;10.64;100.00
55289;BME280;41154;45.394;5.734;2023-04-23T06:10:06;96478.59;;;10.30;100.00
55289;BME280;41154;45.394;5.734;2023-04-23T06:12:32;96479.72;;;10.34;100.00
55289;BME280;41154;45.394;5.734;2023-04-23T06:14:57;96474.09;;;10.40;100.00
55289;BME280;41154;45.394;5.734;2023-04-23T06:17:27;96480.31;;;10.46;100.00
55289;BME280;41154;45.394;5.734;2023-04-23T06:19:53;96466.63;;;10.48;100.00
55289;BME280;41154;45.394;5.734;2023-04-23T06:22:19;96487.47;;;11.09;100.00
55289;BME280;41154;45.394;5.734;2023-04-23T06:24:44;96489.13;;;11.41;100.00
55289;BME280;41154;45.394;5.734;2023-04-23T06:27:11;96495.84;;;11.59;100.00
55289;BME280;41154;45.394;5.734;2023-04-23T06:29:42;96499.28;;;11.13;100.00
55289;BME280;41154;45.394;5.734;2023-04-23T06:32:08;96498.22;;;11.19;100.00
55289;BME280;41154;45.394;5.734;2023-04-23T06:34:35;96501.94;;;11.08;100.00
55289;BME280;41154;45.394;5.734;2023-04-23T06:37:00;96499.53;;;11.06;100.00
55289;BME280;41154;45.394;5.734;2023-04-23T06:39:26;96509.81;;;11.45;100.00
55289;BME280;41154;45.394;5.734;2023-04-23T06:41:52;96506.03;;;11.98;100.00
55289;BME280;41154;45.394;5.734;2023-04-23T06:44:23;96509.56;;;12.84;100.00
55289;BME280;41154;45.394;5.734;2023-04-23T06:46:51;96510.16;;;14.78;100.00
55289;BME280;41154;45.394;5.734;2023-04-23T06:49:17;96509.44;;;16.61;100.00
55289;BME280;41154;45.394;5.734;2023-04-23T06:51:43;96500.31;;;17.35;100.00
55289;BME280;41154;45.394;5.734;2023-04-23T06:54:09;96490.56;;;18.64;100.00
55289;BME280;41154;45.394;5.734;2023-04-23T06:56:34;96500.88;;;18.85;100.00
55289;BME280;41154;45.394;5.734;2023-04-23T06:59:00;96500.34;;;19.84;100.00
55289;BME280;41154;45.394;5.734;2023-04-23T07:01:26;96497.03;;;18.37;100.00
55289;BME280;41154;45.394;5.734;2023-04-23T07:03:52;96498.44;;;17.58;100.00
55289;BME280;41154;45.394;5.734;2023-04-23T07:06:19;96502.91;;;18.30;100.00
55289;BME280;41154;45.394;5.734;2023-04-23T07:08:45;96509.75;;;18.59;100.00
55289;BME280;41154;45.394;5.734;2023-04-23T07:11:10;96497.53;;;20.19;100.00
55289;BME280;41154;45.394;5.734;2023-04-23T07:13:37;96499.84;;;20.56;100.00
55289;BME280;41154;45.394;5.734;2023-04-23T07:16:03;96496.09;;;21.29;96.99
55289;BME280;41154;45.394;5.734;2023-04-23T07:18:28;96486.13;;;21.87;93.32
55289;BME280;41154;45.394;5.734;2023-04-23T07:20:54;96485.75;;;22.68;85.18
55289;BME280;41154;45.394;5.734;2023-04-23T07:23:20;96478.69;;;23.85;79.52
55289;BME280;41154;45.394;5.734;2023-04-23T07:25:46;96473.13;;;25.06;72.38
55289;BME280;41154;45.394;5.734;2023-04-23T07:28:12;96477.84;;;21.21;88.07
55289;BME280;41154;45.394;5.734;2023-04-23T07:30:38;96477.66;;;23.90;76.26
55289;BME280;41154;45.394;5.734;2023-04-23T07:33:03;96483.63;;;20.98;88.54
55289;BME280;41154;45.394;5.734;2023-04-23T07:35:29;96473.38;;;22.25;83.79
55289;BME280;41154;45.394;5.734;2023-04-23T07:37:55;96462.50;;;22.62;82.74
55289;BME280;41154;45.394;5.734;2023-04-23T07:40:22;96462.84;;;24.07;73.37
55289;BME280;41154;45.394;5.734;2023-04-23T07:42:49;96463.53;;;22.70;85.16
55289;BME280;41154;45.394;5.734;2023-04-23T07:45:15;96458.97;;;24.40;83.31
55289;BME280;41154;45.394;5.734;2023-04-23T07:47:41;96464.84;;;22.26;87.64
55289;BME280;41154;45.394;5.734;2023-04-23T07:50:08;96463.03;;;18.89;100.00
55289;BME280;41154;45.394;5.734;2023-04-23T07:52:34;96462.44;;;20.35;100.00
55289;BME280;41154;45.394;5.734;2023-04-23T07:55:01;96450.88;;;24.44;75.65
55289;BME280;41154;45.394;5.734;2023-04-23T07:57:26;96452.53;;;25.16;69.62
55289;BME280;41154;45.394;5.734;2023-04-23T07:59:52;96450.38;;;25.60;70.02
55289;BME280;41154;45.394;5.734;2023-04-23T08:02:18;96445.44;;;26.32;59.08
55289;BME280;41154;45.394;5.734;2023-04-23T08:04:48;96445.19;;;24.20;69.04
55289;BME280;41154;45.394;5.734;2023-04-23T08:07:14;96445.31;;;22.49;77.39
55289;BME280;41154;45.394;5.734;2023-04-23T08:09:39;96430.16;;;24.46;65.52
55289;BME280;41154;45.394;5.734;2023-04-23T08:12:05;96443.72;;;25.06;64.02
55289;BME280;41154;45.394;5.734;2023-04-23T08:14:30;96437.59;;;26.80;63.77
55289;BME280;41154;45.394;5.734;2023-04-23T08:16:57;96434.72;;;23.66;77.58
55289;BME280;41154;45.394;5.734;2023-04-23T08:19:23;96437.56;;;23.98;73.26
55289;BME280;41154;45.394;5.734;2023-04-23T08:21:48;96437.28;;;23.87;76.31
55289;BME280;41154;45.394;5.734;2023-04-23T08:24:15;96431.38;;;24.81;66.37
55289;BME280;41154;45.394;5.734;2023-04-23T08:26:41;96434.16;;;25.00;61.44
55289;BME280;41154;45.394;5.734;2023-04-23T08:29:06;96442.72;;;24.31;66.31
55289;BME280;41154;45.394;5.734;2023-04-23T08:31:32;96453.50;;;23.80;66.51
55289;BME280;41154;45.394;5.734;2023-04-23T08:33:58;96460.09;;;23.22;75.90
55289;BME280;41154;45.394;5.734;2023-04-23T08:36:24;96473.44;;;23.93;68.54
55289;BME280;41154;45.394;5.734;2023-04-23T08:38:51;96469.34;;;22.56;69.45
55289;BME280;41154;45.394;5.734;2023-04-23T08:41:17;96464.94;;;24.42;65.09
55289;BME280;41154;45.394;5.734;2023-04-23T08:43:46;96463.28;;;23.24;70.10
55289;BME280;41154;45.394;5.734;2023-04-23T08:46:17;96456.34;;;22.65;72.81
55289;BME280;41154;45.394;5.734;2023-04-23T08:48:44;96459.84;;;21.83;80.04
55289;BME280;41154;45.394;5.734;2023-04-23T08:51:12;96456.31;;;21.49;77.56
55289;BME280;41154;45.394;5.734;2023-04-23T08:53:43;96455.75;;;22.96;74.30
55289;BME280;41154;45.394;5.734;2023-04-23T08:56:09;96453.16;;;23.00;70.58
55289;BME280;41154;45.394;5.734;2023-04-23T08:58:36;96443.47;;;22.66;69.80
55289;BME280;41154;45.394;5.734;2023-04-23T09:01:02;96445.25;;;23.92;68.71
55289;BME280;41154;45.394;5.734;2023-04-23T09:03:28;96436.78;;;24.13;68.65
55289;BME280;41154;45.394;5.734;2023-04-23T09:05:53;96421.31;;;23.61;65.08
55289;BME280;41154;45.394;5.734;2023-04-23T09:08:20;96421.88;;;23.54;72.07
55289;BME280;41154;45.394;5.734;2023-04-23T09:10:46;96421.41;;;24.25;70.15
55289;BME280;41154;45.394;5.734;2023-04-23T09:13:12;96420.00;;;22.89;71.15
55289;BME280;41154;45.394;5.734;2023-04-23T09:15:41;96429.38;;;20.75;79.16
55289;BME280;41154;45.394;5.734;2023-04-23T09:18:10;96421.41;;;21.54;82.96
55289;BME280;41154;45.394;5.734;2023-04-23T09:20:36;96427.47;;;19.99;82.20
55289;BME280;41154;45.394;5.734;2023-04-23T09:23:07;96418.94;;;20.47;84.64
55289;BME280;41154;45.394;5.734;2023-04-23T09:25:33;96423.72;;;19.03;93.11
55289;BME280;41154;45.394;5.734;2023-04-23T09:27:59;96420.84;;;19.00;95.38
55289;BME280;41154;45.394;5.734;2023-04-23T09:30:28;96425.50;;;18.50;98.31
55289;BME280;41154;45.394;5.734;2023-04-23T09:32:54;96422.44;;;18.35;97.95
55289;BME280;41154;45.394;5.734;2023-04-23T09:35:19;96426.88;;;18.30;97.11
55289;BME280;41154;45.394;5.734;2023-04-23T09:37:47;96431.84;;;17.74;100.00
55289;BME280;41154;45.394;5.734;2023-04-23T09:40:15;96430.38;;;17.23;100.00
55289;BME280;41154;45.394;5.734;2023-04-23T09:42:46;96427.34;;;17.70;100.00
55289;BME280;41154;45.394;5.734;2023-04-23T09:45:12;96430.81;;;17.39;97.64
55289;BME280;41154;45.394;5.734;2023-04-23T09:47:40;96416.13;;;17.85;98.67
55289;BME280;41154;45.394;5.734;2023-04-23T09:50:06;96425.16;;;17.49;100.00
55289;BME280;41154;45.394;5.734;2023-04-23T09:52:38;96419.69;;;17.94;98.44
55289;BME280;41154;45.394;5.734;2023-04-23T09:55:04;96414.47;;;18.47;96.33
55289;BME280;41154;45.394;5.734;2023-04-23T09:57:40;96415.16;;;17.81;93.91
55289;BME280;41154;45.394;5.734;2023-04-23T10:00:14;96419.72;;;18.35;100.00
55289;BME280;41154;45.394;5.734;2023-04-23T10:02:49;96416.38;;;17.98;98.94
55289;BME280;41154;45.394;5.734;2023-04-23T10:05:20;96417.47;;;17.96;97.32
55289;BME280;41154;45.394;5.734;2023-04-23T10:07:47;96426.56;;;18.23;100.00
55289;BME280;41154;45.394;5.734;2023-04-23T10:10:16;96423.41;;;17.99;95.73
55289;BME280;41154;45.394;5.734;2023-04-23T10:12:43;96422.06;;;18.27;98.98
55289;BME280;41154;45.394;5.734;2023-04-23T10:15:10;96412.84;;;17.43;99.24
55289;BME280;41154;45.394;5.734;2023-04-23T10:17:36;96409.78;;;18.30;100.00
55289;BME280;41154;45.394;5.734;2023-04-23T10:20:04;96398.59;;;18.23;100.00
55289;BME280;41154;45.394;5.734;2023-04-23T10:22:32;96404.03;;;18.98;92.18
55289;BME280;41154;45.394;5.734;2023-04-23T10:24:59;96396.72;;;18.49;96.68
55289;BME280;41154;45.394;5.734;2023-04-23T10:27:28;96401.81;;;18.33;97.26
55289;BME280;41154;45.394;5.734;2023-04-23T10:29:56;96389.69;;;18.40;91.18
55289;BME280;41154;45.394;5.734;2023-04-23T10:32:22;96383.22;;;17.78;94.93
55289;BME280;41154;45.394;5.734;2023-04-23T10:34:49;96384.47;;;18.03;95.89
55289;BME280;41154;45.394;5.734;2023-04-23T10:37:16;96376.34;;;18.12;94.43
55289;BME280;41154;45.394;5.734;2023-04-23T10:39:47;96369.38;;;18.28;100.00
55289;BME280;41154;45.394;5.734;2023-04-23T10:42:15;96369.06;;;18.30;95.23
55289;BME280;41154;45.394;5.734;2023-04-23T10:44:42;96383.75;;;18.20;96.43
55289;BME280;41154;45.394;5.734;2023-04-23T10:47:13;96372.06;;;19.03;97.23
55289;BME280;41154;45.394;5.734;2023-04-23T10:49:39;96378.75;;;18.13;96.70
55289;BME280;41154;45.394;5.734;2023-04-23T10:52:12;96377.09;;;18.44;97.72
55289;BME280;41154;45.394;5.734;2023-04-23T10:54:48;96370.69;;;18.40;100.00
55289;BME280;41154;45.394;5.734;2023-04-23T10:57:15;96369.84;;;18.97;96.33
55289;BME280;41154;45.394;5.734;2023-04-23T10:59:51;96366.78;;;19.98;95.29
55289;BME280;41154;45.394;5.734;2023-04-23T11:02:18;96366.38;;;19.61;90.43
55289;BME280;41154;45.394;5.734;2023-04-23T11:04:44;96360.28;;;19.64;88.90
55289;BME280;41154;45.394;5.734;2023-04-23T11:07:11;96353.88;;;19.69;86.67
55289;BME280;41154;45.394;5.734;2023-04-23T11:09:42;96350.88;;;20.39;87.04
55289;BME280;41154;45.394;5.734;2023-04-23T11:14:58;96331.75;;;19.14;89.37
55289;BME280;41154;45.394;5.734;2023-04-23T11:20:12;96331.28;;;19.12;89.75
55289;BME280;41154;45.394;5.734;2023-04-23T11:22:40;96323.88;;;19.39;91.25
55289;BME280;41154;45.394;5.734;2023-04-23T11:25:11;96324.59;;;19.66;90.95
55289;BME280;41154;45.394;5.734;2023-04-23T11:27:41;96318.84;;;19.67;89.30
55289;BME280;41154;45.394;5.734;2023-04-23T11:30:17;96322.66;;;19.66;88.13
55289;BME280;41154;45.394;5.734;2023-04-23T11:32:45;96322.81;;;19.79;87.48
55289;BME280;41154;45.394;5.734;2023-04-23T11:35:17;96326.25;;;19.49;94.67
55289;BME280;41154;45.394;5.734;2023-04-23T11:37:44;96329.41;;;19.78;95.95
55289;BME280;41154;45.394;5.734;2023-04-23T11:40:12;96332.97;;;19.52;99.11
55289;BME280;41154;45.394;5.734;2023-04-23T11:42:41;96323.63;;;19.70;92.99
55289;BME280;41154;45.394;5.734;2023-04-23T11:45:21;96333.97;;;18.51;95.56
55289;BME280;41154;45.394;5.734;2023-04-23T11:47:48;96326.97;;;18.85;95.09
55289;BME280;41154;45.394;5.734;2023-04-23T11:50:22;96328.91;;;19.11;96.43
55289;BME280;41154;45.394;5.734;2023-04-23T11:52:48;96330.38;;;19.64;92.28
55289;BME280;41154;45.394;5.734;2023-04-23T11:55:15;96325.81;;;19.30;88.88
55289;BME280;41154;45.394;5.734;2023-04-23T11:57:42;96329.31;;;20.25;94.69
55289;BME280;41154;45.394;5.734;2023-04-23T12:00:15;96331.59;;;19.75;90.06
55289;BME280;41154;45.394;5.734;2023-04-23T12:02:58;96321.06;;;20.13;84.74
55289;BME280;41154;45.394;5.734;2023-04-23T12:05:31;96319.09;;;19.92;90.06
55289;BME280;41154;45.394;5.734;2023-04-23T12:08:15;96325.97;;;19.89;86.83
55289;BME280;41154;45.394;5.734;2023-04-23T12:10:54;96321.56;;;19.67;92.44
55289;BME280;41154;45.394;5.734;2023-04-23T12:13:25;96309.38;;;19.17;91.14
55289;BME280;41154;45.394;5.734;2023-04-23T12:15:56;96316.56;;;19.13;95.96
55289;BME280;41154;45.394;5.734;2023-04-23T12:18:31;96310.38;;;19.60;94.82
55289;BME280;41154;45.394;5.734;2023-04-23T12:21:08;96310.28;;;19.30;90.98
55289;BME280;41154;45.394;5.734;2023-04-23T12:23:36;96312.75;;;19.70;92.09
55289;BME280;41154;45.394;5.734;2023-04-23T12:26:03;96316.56;;;20.17;100.00
55289;BME280;41154;45.394;5.734;2023-04-23T12:28:29;96313.84;;;19.87;91.88
55289;BME280;41154;45.394;5.734;2023-04-23T12:31:00;96311.91;;;19.87;90.19
55289;BME280;41154;45.394;5.734;2023-04-23T12:33:30;96321.50;;;19.85;96.17
55289;BME280;41154;45.394;5.734;2023-04-23T12:35:56;96306.75;;;19.95;90.70
55289;BME280;41154;45.394;5.734;2023-04-23T12:38:26;96303.78;;;19.70;90.66
55289;BME280;41154;45.394;5.734;2023-04-23T12:40:54;96302.13;;;19.48;92.24
55289;BME280;41154;45.394;5.734;2023-04-23T12:43:20;96297.22;;;18.80;93.90
55289;BME280;41154;45.394;5.734;2023-04-23T12:45:46;96294.19;;;18.38;97.24
55289;BME280;41154;45.394;5.734;2023-04-23T12:48:12;96287.16;;;18.80;98.31
55289;BME280;41154;45.394;5.734;2023-04-23T12:50:38;96301.16;;;18.12;100.00
55289;BME280;41154;45.394;5.734;2023-04-23T12:53:04;96297.63;;;18.12;100.00
55289;BME280;41154;45.394;5.734;2023-04-23T12:55:29;96283.50;;;17.84;100.00
55289;BME280;41154;45.394;5.734;2023-04-23T12:57:55;96282.50;;;17.71;100.00
55289;BME280;41154;45.394;5.734;2023-04-23T13:00:22;96283.47;;;17.43;100.00